sensor_id;sensor_type;location;lat;lon;timestamp;pressure;altitude;pressure_sealevel;temperature
28305;BMP280;15569;42.652;23.040;2023-12-20T00:02:22;93281.16;;;1.84
28305;BMP280;15569;42.652;23.040;2023-12-20T00:04:48;93270.59;;;1.86
28305;BMP280;15569;42.652;23.040;2023-12-20T00:07:13;93259.13;;;1.86
28305;BMP280;15569;42.652;23.040;2023-12-20T00:09:39;93278.09;;;1.95
28305;BMP280;15569;42.652;23.040;2023-12-20T00:12:04;93283.09;;;1.68
28305;BMP280;15569;42.652;23.040;2023-12-20T00:14:30;93272.19;;;1.74
28305;BMP280;15569;42.652;23.040;2023-12-20T00:16:55;93262.75;;;1.73
28305;BMP280;15569;42.652;23.040;2023-12-20T00:19:21;93272.41;;;1.84
28305;BMP280;15569;42.652;23.040;2023-12-20T00:21:46;93267.34;;;1.65
28305;BMP280;15569;42.652;23.040;2023-12-20T00:24:11;93252.28;;;1.32
28305;BMP280;15569;42.652;23.040;2023-12-20T00:26:37;93258.94;;;1.53
28305;BMP280;15569;42.652;23.040;2023-12-20T00:29:02;93252.34;;;1.54
28305;BMP280;15569;42.652;23.040;2023-12-20T00:31:27;93255.78;;;1.70
28305;BMP280;15569;42.652;23.040;2023-12-20T00:33:53;93234.13;;;1.68
28305;BMP280;15569;42.652;23.040;2023-12-20T00:36:18;93240.38;;;1.63
28305;BMP280;15569;42.652;23.040;2023-12-20T00:38:44;93238.59;;;1.58
28305;BMP280;15569;42.652;23.040;2023-12-20T00:41:10;93223.34;;;1.38
28305;BMP280;15569;42.652;23.040;2023-12-20T00:43:35;93236.22;;;1.39
28305;BMP280;15569;42.652;23.040;2023-12-20T00:46:00;93237.66;;;1.25
28305;BMP280;15569;42.652;23.040;2023-12-20T00:48:26;93219.44;;;1.24
28305;BMP280;15569;42.652;23.040;2023-12-20T00:50:57;93235.00;;;1.40
28305;BMP280;15569;42.652;23.040;2023-12-20T00:53:22;93225.16;;;1.28
28305;BMP280;15569;42.652;23.040;2023-12-20T00:55:48;93217.47;;;1.24
28305;BMP280;15569;42.652;23.040;2023-12-20T00:58:14;93235.50;;;1.39
28305;BMP280;15569;42.652;23.040;2023-12-20T01:00:40;93207.09;;;1.21
28305;BMP280;15569;42.652;23.040;2023-12-20T01:03:07;93223.19;;;1.36
28305;BMP280;15569;42.652;23.040;2023-12-20T01:05:32;93226.59;;;1.44
28305;BMP280;15569;42.652;23.040;2023-12-20T01:07:58;93221.78;;;1.50
28305;BMP280;15569;42.652;23.040;2023-12-20T01:10:23;93210.91;;;1.63
28305;BMP280;15569;42.652;23.040;2023-12-20T01:12:48;93218.72;;;1.38
28305;BMP280;15569;42.652;23.040;2023-12-20T01:15:14;93214.13;;;1.54
28305;BMP280;15569;42.652;23.040;2023-12-20T01:17:39;93213.03;;;1.42
28305;BMP280;15569;42.652;23.040;2023-12-20T01:20:05;93213.03;;;1.42
28305;BMP280;15569;42.652;23.040;2023-12-20T01:22:31;93215.53;;;1.47
28305;BMP280;15569;42.652;23.040;2023-12-20T01:24:56;93205.16;;;1.36
28305;BMP280;15569;42.652;23.040;2023-12-20T01:27:22;93184.97;;;1.20
28305;BMP280;15569;42.652;23.040;2023-12-20T01:29:47;93191.75;;;1.44
28305;BMP280;15569;42.652;23.040;2023-12-20T01:32:12;93185.88;;;1.38
28305;BMP280;15569;42.652;23.040;2023-12-20T01:34:38;93184.09;;;1.40
28305;BMP280;15569;42.652;23.040;2023-12-20T01:37:03;93183.72;;;1.21
28305;BMP280;15569;42.652;23.040;2023-12-20T01:39:29;93186.56;;;1.16
28305;BMP280;15569;42.652;23.040;2023-12-20T01:41:54;93175.44;;;0.89
28305;BMP280;15569;42.652;23.040;2023-12-20T01:44:20;93181.59;;;0.69
28305;BMP280;15569;42.652;23.040;2023-12-20T01:46:46;93181.28;;;0.87
28305;BMP280;15569;42.652;23.040;2023-12-20T01:49:12;93179.84;;;0.79
28305;BMP280;15569;42.652;23.040;2023-12-20T01:51:38;93174.31;;;0.77
28305;BMP280;15569;42.652;23.040;2023-12-20T01:54:04;93168.25;;;0.76
28305;BMP280;15569;42.652;23.040;2023-12-20T01:56:31;93151.44;;;0.68
28305;BMP280;15569;42.652;23.040;2023-12-20T01:58:56;93156.47;;;0.79
28305;BMP280;15569;42.652;23.040;2023-12-20T02:01:22;93154.03;;;0.96
28305;BMP280;15569;42.652;23.040;2023-12-20T02:03:48;93133.38;;;1.04
28305;BMP280;15569;42.652;23.040;2023-12-20T02:06:13;93134.53;;;0.81
28305;BMP280;15569;42.652;23.040;2023-12-20T02:08:40;93139.16;;;0.73
28305;BMP280;15569;42.652;23.040;2023-12-20T02:11:05;93126.53;;;0.88
28305;BMP280;15569;42.652;23.040;2023-12-20T02:13:31;93137.66;;;1.07
28305;BMP280;15569;42.652;23.040;2023-12-20T02:15:57;93127.22;;;0.81
28305;BMP280;15569;42.652;23.040;2023-12-20T02:18:22;93125.81;;;0.80
28305;BMP280;15569;42.652;23.040;2023-12-20T02:20:48;93131.72;;;0.86
28305;BMP280;15569;42.652;23.040;2023-12-20T02:23:13;93121.56;;;1.00
28305;BMP280;15569;42.652;23.040;2023-12-20T02:25:38;93113.16;;;0.88
28305;BMP280;15569;42.652;23.040;2023-12-20T02:28:05;93123.66;;;0.71
28305;BMP280;15569;42.652;23.040;2023-12-20T02:30:31;93114.00;;;0.76
28305;BMP280;15569;42.652;23.040;2023-12-20T02:32:56;93122.19;;;0.70
28305;BMP280;15569;42.652;23.040;2023-12-20T02:35:23;93109.88;;;0.60
28305;BMP280;15569;42.652;23.040;2023-12-20T02:37:48;93112.63;;;0.31
28305;BMP280;15569;42.652;23.040;2023-12-20T02:40:14;93110.50;;;0.45
28305;BMP280;15569;42.652;23.040;2023-12-20T02:42:39;93102.97;;;0.87
28305;BMP280;15569;42.652;23.040;2023-12-20T02:45:05;93111.84;;;0.67
28305;BMP280;15569;42.652;23.040;2023-12-20T02:47:30;93109.84;;;0.52
28305;BMP280;15569;42.652;23.040;2023-12-20T02:49:56;93112.88;;;0.56
28305;BMP280;15569;42.652;23.040;2023-12-20T02:52:23;93102.59;;;0.24
28305;BMP280;15569;42.652;23.040;2023-12-20T02:54:49;93101.84;;;0.09
28305;BMP280;15569;42.652;23.040;2023-12-20T02:57:14;93101.44;;;-0.03
28305;BMP280;15569;42.652;23.040;2023-12-20T02:59:40;93106.63;;;0.03
28305;BMP280;15569;42.652;23.040;2023-12-20T03:02:05;93095.16;;;-0.06
28305;BMP280;15569;42.652;23.040;2023-12-20T03:04:30;93101.75;;;-0.07
28305;BMP280;15569;42.652;23.040;2023-12-20T03:06:56;93099.13;;;0.01
28305;BMP280;15569;42.652;23.040;2023-12-20T03:09:21;93093.13;;;0.16
28305;BMP280;15569;42.652;23.040;2023-12-20T03:11:46;93101.41;;;0.33
28305;BMP280;15569;42.652;23.040;2023-12-20T03:14:12;93097.25;;;0.24
28305;BMP280;15569;42.652;23.040;2023-12-20T03:16:37;93097.03;;;0.58
28305;BMP280;15569;42.652;23.040;2023-12-20T03:19:02;93103.84;;;0.74
28305;BMP280;15569;42.652;23.040;2023-12-20T03:21:28;93098.97;;;0.50
28305;BMP280;15569;42.652;23.040;2023-12-20T03:23:53;93087.94;;;0.53
28305;BMP280;15569;42.652;23.040;2023-12-20T03:26:18;93083.84;;;0.68
28305;BMP280;15569;42.652;23.040;2023-12-20T03:28:44;93074.44;;;0.74
28305;BMP280;15569;42.652;23.040;2023-12-20T03:31:09;93083.91;;;0.90
28305;BMP280;15569;42.652;23.040;2023-12-20T03:33:35;93079.81;;;0.89
28305;BMP280;15569;42.652;23.040;2023-12-20T03:36:00;93068.31;;;0.66
28305;BMP280;15569;42.652;23.040;2023-12-20T03:38:26;93075.41;;;0.48
28305;BMP280;15569;42.652;23.040;2023-12-20T03:40:52;93075.47;;;0.13
28305;BMP280;15569;42.652;23.040;2023-12-20T03:43:17;93081.19;;;0.17
28305;BMP280;15569;42.652;23.040;2023-12-20T03:45:43;93064.84;;;-0.16
28305;BMP280;15569;42.652;23.040;2023-12-20T03:48:08;93073.00;;;-0.21
28305;BMP280;15569;42.652;23.040;2023-12-20T03:50:34;93072.94;;;-0.01
28305;BMP280;15569;42.652;23.040;2023-12-20T03:53:00;93060.84;;;0.06
28305;BMP280;15569;42.652;23.040;2023-12-20T03:55:25;93059.16;;;0.24
28305;BMP280;15569;42.652;23.040;2023-12-20T03:57:50;93066.06;;;0.19
28305;BMP280;15569;42.652;23.040;2023-12-20T04:00:16;93052.72;;;-0.17
28305;BMP280;15569;42.652;23.040;2023-12-20T04:02:42;93052.22;;;-0.36
28305;BMP280;15569;42.652;23.040;2023-12-20T04:05:09;93058.81;;;-0.37
28305;BMP280;15569;42.652;23.040;2023-12-20T04:07:37;93043.66;;;-0.42
28305;BMP280;15569;42.652;23.040;2023-12-20T04:10:03;93048.91;;;-0.29
28305;BMP280;15569;42.652;23.040;2023-12-20T04:12:32;93039.69;;;-0.20
28305;BMP280;15569;42.652;23.040;2023-12-20T04:14:58;93040.59;;;-0.46
28305;BMP280;15569;42.652;23.040;2023-12-20T04:17:23;93053.06;;;-0.41
28305;BMP280;15569;42.652;23.040;2023-12-20T04:19:49;93051.78;;;-0.47
28305;BMP280;15569;42.652;23.040;2023-12-20T04:22:15;93041.34;;;-0.38
28305;BMP280;15569;42.652;23.040;2023-12-20T04:24:40;93045.81;;;-0.05
28305;BMP280;15569;42.652;23.040;2023-12-20T04:27:07;93045.22;;;0.18
28305;BMP280;15569;42.652;23.040;2023-12-20T04:29:33;93044.78;;;0.06
28305;BMP280;15569;42.652;23.040;2023-12-20T04:31:58;93025.50;;;-0.08
28305;BMP280;15569;42.652;23.040;2023-12-20T04:34:24;93033.81;;;0.17
28305;BMP280;15569;42.652;23.040;2023-12-20T04:36:49;93036.78;;;0.06
28305;BMP280;15569;42.652;23.040;2023-12-20T04:39:14;93015.50;;;-0.15
28305;BMP280;15569;42.652;23.040;2023-12-20T04:41:40;93034.97;;;0.01
28305;BMP280;15569;42.652;23.040;2023-12-20T04:44:05;93040.78;;;-0.16
28305;BMP280;15569;42.652;23.040;2023-12-20T04:46:31;93037.25;;;-0.11
28305;BMP280;15569;42.652;23.040;2023-12-20T04:48:56;93031.25;;;-0.04
28305;BMP280;15569;42.652;23.040;2023-12-20T04:51:22;93029.63;;;-0.07
28305;BMP280;15569;42.652;23.040;2023-12-20T04:53:47;93027.63;;;-0.14
28305;BMP280;15569;42.652;23.040;2023-12-20T04:56:13;93027.69;;;0.02
28305;BMP280;15569;42.652;23.040;2023-12-20T04:58:38;93033.28;;;-0.17
28305;BMP280;15569;42.652;23.040;2023-12-20T05:01:05;93027.94;;;-0.25
28305;BMP280;15569;42.652;23.040;2023-12-20T05:03:31;93017.81;;;-0.19
28305;BMP280;15569;42.652;23.040;2023-12-20T05:05:56;93030.53;;;0.04
28305;BMP280;15569;42.652;23.040;2023-12-20T05:08:22;93011.47;;;-0.01
28305;BMP280;15569;42.652;23.040;2023-12-20T05:10:47;93016.53;;;-0.25
28305;BMP280;15569;42.652;23.040;2023-12-20T05:13:13;93003.91;;;-0.17
28305;BMP280;15569;42.652;23.040;2023-12-20T05:15:38;92987.69;;;-0.19
28305;BMP280;15569;42.652;23.040;2023-12-20T05:18:04;92990.88;;;-0.21
28305;BMP280;15569;42.652;23.040;2023-12-20T05:20:29;92995.53;;;-0.21
28305;BMP280;15569;42.652;23.040;2023-12-20T05:22:55;92989.16;;;-0.46
28305;BMP280;15569;42.652;23.040;2023-12-20T05:25:20;92978.13;;;-0.43
28305;BMP280;15569;42.652;23.040;2023-12-20T05:27:45;92984.03;;;-0.65
28305;BMP280;15569;42.652;23.040;2023-12-20T05:30:11;92984.72;;;-0.44
28305;BMP280;15569;42.652;23.040;2023-12-20T05:32:36;92981.63;;;-0.56
28305;BMP280;15569;42.652;23.040;2023-12-20T05:35:02;92984.81;;;-0.29
28305;BMP280;15569;42.652;23.040;2023-12-20T05:37:28;92975.69;;;-0.33
28305;BMP280;15569;42.652;23.040;2023-12-20T05:39:54;92965.69;;;-0.33
28305;BMP280;15569;42.652;23.040;2023-12-20T05:42:19;92978.16;;;-0.35
28305;BMP280;15569;42.652;23.040;2023-12-20T05:44:44;92970.56;;;-0.60
28305;BMP280;15569;42.652;23.040;2023-12-20T05:47:10;92973.72;;;-0.33
28305;BMP280;15569;42.652;23.040;2023-12-20T05:49:35;92972.50;;;-0.32
28305;BMP280;15569;42.652;23.040;2023-12-20T05:52:00;92967.06;;;-0.47
28305;BMP280;15569;42.652;23.040;2023-12-20T05:54:26;92970.56;;;-0.31
28305;BMP280;15569;42.652;23.040;2023-12-20T05:56:51;92960.78;;;-0.29
28305;BMP280;15569;42.652;23.040;2023-12-20T05:59:17;92957.22;;;-0.24
28305;BMP280;15569;42.652;23.040;2023-12-20T06:01:42;92950.16;;;-0.14
28305;BMP280;15569;42.652;23.040;2023-12-20T06:04:07;92950.03;;;-0.36
28305;BMP280;15569;42.652;23.040;2023-12-20T06:06:33;92959.72;;;-0.26
28305;BMP280;15569;42.652;23.040;2023-12-20T06:08:58;92955.81;;;-0.25
28305;BMP280;15569;42.652;23.040;2023-12-20T06:11:23;92948.75;;;0.00
28305;BMP280;15569;42.652;23.040;2023-12-20T06:13:49;92955.03;;;-0.33
28305;BMP280;15569;42.652;23.040;2023-12-20T06:16:17;92963.19;;;-0.38
28305;BMP280;15569;42.652;23.040;2023-12-20T06:18:43;92957.50;;;-0.35
28305;BMP280;15569;42.652;23.040;2023-12-20T06:21:08;92958.66;;;-0.23
28305;BMP280;15569;42.652;23.040;2023-12-20T06:23:37;92970.72;;;-0.29
28305;BMP280;15569;42.652;23.040;2023-12-20T06:26:03;92953.91;;;-0.45
28305;BMP280;15569;42.652;23.040;2023-12-20T06:28:28;92956.47;;;-0.32
28305;BMP280;15569;42.652;23.040;2023-12-20T06:30:54;92963.91;;;-0.38
28305;BMP280;15569;42.652;23.040;2023-12-20T06:33:20;92954.94;;;-0.20
28305;BMP280;15569;42.652;23.040;2023-12-20T06:35:47;92961.66;;;-0.26
28305;BMP280;15569;42.652;23.040;2023-12-20T06:38:12;92958.31;;;-0.19
28305;BMP280;15569;42.652;23.040;2023-12-20T06:40:38;92965.50;;;-0.07
28305;BMP280;15569;42.652;23.040;2023-12-20T06:43:03;92962.50;;;0.12
28305;BMP280;15569;42.652;23.040;2023-12-20T06:45:28;92951.84;;;0.20
28305;BMP280;15569;42.652;23.040;2023-12-20T06:47:54;92938.66;;;0.22
28305;BMP280;15569;42.652;23.040;2023-12-20T06:50:20;92965.22;;;-0.31
28305;BMP280;15569;42.652;23.040;2023-12-20T06:52:46;92952.25;;;-0.27
28305;BMP280;15569;42.652;23.040;2023-12-20T06:55:11;92959.03;;;-0.19
28305;BMP280;15569;42.652;23.040;2023-12-20T06:57:36;92945.75;;;0.04
28305;BMP280;15569;42.652;23.040;2023-12-20T07:00:02;92944.84;;;-0.06
28305;BMP280;15569;42.652;23.040;2023-12-20T07:02:28;92940.63;;;0.21
28305;BMP280;15569;42.652;23.040;2023-12-20T07:04:55;92935.84;;;0.50
28305;BMP280;15569;42.652;23.040;2023-12-20T07:07:21;92934.56;;;0.51
28305;BMP280;15569;42.652;23.040;2023-12-20T07:09:48;92934.22;;;0.47
28305;BMP280;15569;42.652;23.040;2023-12-20T07:12:14;92925.69;;;0.56
28305;BMP280;15569;42.652;23.040;2023-12-20T07:14:39;92944.19;;;0.54
28305;BMP280;15569;42.652;23.040;2023-12-20T07:17:04;92932.44;;;0.87
28305;BMP280;15569;42.652;23.040;2023-12-20T07:19:30;92926.56;;;0.89
28305;BMP280;15569;42.652;23.040;2023-12-20T07:21:55;92926.56;;;0.74
28305;BMP280;15569;42.652;23.040;2023-12-20T07:24:20;92924.41;;;0.87
28305;BMP280;15569;42.652;23.040;2023-12-20T07:26:46;92918.50;;;1.19
28305;BMP280;15569;42.652;23.040;2023-12-20T07:29:11;92922.53;;;1.43
28305;BMP280;15569;42.652;23.040;2023-12-20T07:31:37;92920.28;;;1.17
28305;BMP280;15569;42.652;23.040;2023-12-20T07:34:03;92914.78;;;0.99
28305;BMP280;15569;42.652;23.040;2023-12-20T07:36:28;92920.16;;;0.92
28305;BMP280;15569;42.652;23.040;2023-12-20T07:38:54;92916.94;;;0.71
28305;BMP280;15569;42.652;23.040;2023-12-20T07:41:19;92908.38;;;0.80
28305;BMP280;15569;42.652;23.040;2023-12-20T07:43:46;92913.03;;;1.57
28305;BMP280;15569;42.652;23.040;2023-12-20T07:46:12;92913.69;;;1.73
28305;BMP280;15569;42.652;23.040;2023-12-20T07:48:38;92905.66;;;2.05
28305;BMP280;15569;42.652;23.040;2023-12-20T07:51:04;92906.22;;;2.28
28305;BMP280;15569;42.652;23.040;2023-12-20T07:53:31;92902.66;;;2.25
28305;BMP280;15569;42.652;23.040;2023-12-20T07:55:56;92894.56;;;2.58
28305;BMP280;15569;42.652;23.040;2023-12-20T07:58:21;92904.19;;;2.78
28305;BMP280;15569;42.652;23.040;2023-12-20T08:00:47;92899.94;;;2.75
28305;BMP280;15569;42.652;23.040;2023-12-20T08:03:12;92892.31;;;3.06
28305;BMP280;15569;42.652;23.040;2023-12-20T08:05:38;92904.50;;;2.89
28305;BMP280;15569;42.652;23.040;2023-12-20T08:08:06;92898.63;;;3.01
28305;BMP280;15569;42.652;23.040;2023-12-20T08:10:31;92893.88;;;3.26
28305;BMP280;15569;42.652;23.040;2023-12-20T08:12:57;92888.66;;;3.11
28305;BMP280;15569;42.652;23.040;2023-12-20T08:15:22;92881.31;;;2.94
28305;BMP280;15569;42.652;23.040;2023-12-20T08:17:47;92880.31;;;3.07
28305;BMP280;15569;42.652;23.040;2023-12-20T08:20:13;92886.47;;;2.82
28305;BMP280;15569;42.652;23.040;2023-12-20T08:22:38;92877.63;;;2.89
28305;BMP280;15569;42.652;23.040;2023-12-20T08:25:04;92878.41;;;3.00
28305;BMP280;15569;42.652;23.040;2023-12-20T08:27:29;92873.22;;;3.19
28305;BMP280;15569;42.652;23.040;2023-12-20T08:29:57;92869.53;;;3.41
28305;BMP280;15569;42.652;23.040;2023-12-20T08:32:25;92868.59;;;3.46
28305;BMP280;15569;42.652;23.040;2023-12-20T08:34:51;92868.59;;;3.46
28305;BMP280;15569;42.652;23.040;2023-12-20T08:37:16;92863.06;;;3.44
28305;BMP280;15569;42.652;23.040;2023-12-20T08:39:42;92859.03;;;3.35
28305;BMP280;15569;42.652;23.040;2023-12-20T08:42:09;92859.06;;;3.89
28305;BMP280;15569;42.652;23.040;2023-12-20T08:44:34;92850.59;;;3.92
28305;BMP280;15569;42.652;23.040;2023-12-20T08:47:00;92850.50;;;4.00
28305;BMP280;15569;42.652;23.040;2023-12-20T08:49:25;92848.94;;;4.06
28305;BMP280;15569;42.652;23.040;2023-12-20T08:51:50;92850.53;;;3.83
28305;BMP280;15569;42.652;23.040;2023-12-20T08:54:16;92848.03;;;3.85
28305;BMP280;15569;42.652;23.040;2023-12-20T08:56:42;92830.38;;;3.65
28305;BMP280;15569;42.652;23.040;2023-12-20T08:59:08;92822.63;;;4.05
28305;BMP280;15569;42.652;23.040;2023-12-20T09:01:34;92828.94;;;3.90
28305;BMP280;15569;42.652;23.040;2023-12-20T09:04:00;92833.22;;;3.67
28305;BMP280;15569;42.652;23.040;2023-12-20T09:06:25;92816.66;;;3.70
28305;BMP280;15569;42.652;23.040;2023-12-20T09:08:51;92811.91;;;3.51
28305;BMP280;15569;42.652;23.040;2023-12-20T09:11:16;92816.44;;;3.32
28305;BMP280;15569;42.652;23.040;2023-12-20T09:13:43;92809.72;;;3.40
28305;BMP280;15569;42.652;23.040;2023-12-20T09:16:09;92792.91;;;3.67
28305;BMP280;15569;42.652;23.040;2023-12-20T09:18:35;92786.00;;;3.83
28305;BMP280;15569;42.652;23.040;2023-12-20T09:21:00;92780.81;;;3.85
28305;BMP280;15569;42.652;23.040;2023-12-20T09:23:27;92772.06;;;3.58
28305;BMP280;15569;42.652;23.040;2023-12-20T09:25:52;92774.81;;;3.67
28305;BMP280;15569;42.652;23.040;2023-12-20T09:28:18;92768.66;;;3.57
28305;BMP280;15569;42.652;23.040;2023-12-20T09:30:43;92778.03;;;3.66
28305;BMP280;15569;42.652;23.040;2023-12-20T09:33:10;92777.50;;;3.67
28305;BMP280;15569;42.652;23.040;2023-12-20T09:35:36;92762.75;;;4.14
28305;BMP280;15569;42.652;23.040;2023-12-20T09:38:01;92755.84;;;4.40
28305;BMP280;15569;42.652;23.040;2023-12-20T09:40:27;92754.19;;;4.44
28305;BMP280;15569;42.652;23.040;2023-12-20T09:43:11;92755.47;;;4.62
28305;BMP280;15569;42.652;23.040;2023-12-20T09:45:37;92724.00;;;4.65
28305;BMP280;15569;42.652;23.040;2023-12-20T09:48:03;92739.22;;;5.20
28305;BMP280;15569;42.652;23.040;2023-12-20T09:50:30;92740.22;;;5.15
28305;BMP280;15569;42.652;23.040;2023-12-20T09:52:57;92735.88;;;4.71
28305;BMP280;15569;42.652;23.040;2023-12-20T09:55:25;92724.19;;;5.17
28305;BMP280;15569;42.652;23.040;2023-12-20T09:57:50;92720.94;;;5.09
28305;BMP280;15569;42.652;23.040;2023-12-20T10:00:16;92720.53;;;5.12
28305;BMP280;15569;42.652;23.040;2023-12-20T10:05:17;92717.03;;;4.71
28305;BMP280;15569;42.652;23.040;2023-12-20T10:07:48;92717.31;;;5.04
28305;BMP280;15569;42.652;23.040;2023-12-20T10:10:14;92704.34;;;5.12
28305;BMP280;15569;42.652;23.040;2023-12-20T10:12:39;92690.41;;;5.56
28305;BMP280;15569;42.652;23.040;2023-12-20T10:15:06;92687.63;;;5.75
28305;BMP280;15569;42.652;23.040;2023-12-20T10:17:31;92694.44;;;5.76
28305;BMP280;15569;42.652;23.040;2023-12-20T10:19:57;92688.53;;;5.89
28305;BMP280;15569;42.652;23.040;2023-12-20T10:22:23;92684.38;;;5.98
28305;BMP280;15569;42.652;23.040;2023-12-20T10:24:48;92681.88;;;5.90
28305;BMP280;15569;42.652;23.040;2023-12-20T10:27:14;92680.13;;;5.95
28305;BMP280;15569;42.652;23.040;2023-12-20T10:29:39;92678.16;;;6.49
28305;BMP280;15569;42.652;23.040;2023-12-20T10:32:25;92670.50;;;6.46
28305;BMP280;15569;42.652;23.040;2023-12-20T10:34:52;92669.63;;;6.53
28305;BMP280;15569;42.652;23.040;2023-12-20T10:37:17;92673.91;;;6.79
28305;BMP280;15569;42.652;23.040;2023-12-20T10:39:43;92659.69;;;6.79
28305;BMP280;15569;42.652;23.040;2023-12-20T10:42:12;92646.22;;;7.02
28305;BMP280;15569;42.652;23.040;2023-12-20T10:44:37;92640.00;;;7.34
28305;BMP280;15569;42.652;23.040;2023-12-20T10:47:03;92634.91;;;7.63
28305;BMP280;15569;42.652;23.040;2023-12-20T10:49:30;92640.16;;;7.84
28305;BMP280;15569;42.652;23.040;2023-12-20T10:51:59;92631.78;;;7.92
28305;BMP280;15569;42.652;23.040;2023-12-20T10:54:26;92618.44;;;8.33
28305;BMP280;15569;42.652;23.040;2023-12-20T10:56:52;92618.59;;;8.48
28305;BMP280;15569;42.652;23.040;2023-12-20T10:59:20;92608.28;;;8.58
28305;BMP280;15569;42.652;23.040;2023-12-20T11:01:47;92608.88;;;8.57
28305;BMP280;15569;42.652;23.040;2023-12-20T11:04:19;92597.41;;;8.83
28305;BMP280;15569;42.652;23.040;2023-12-20T11:06:48;92599.63;;;9.28
28305;BMP280;15569;42.652;23.040;2023-12-20T11:09:22;92591.09;;;9.33
28305;BMP280;15569;42.652;23.040;2023-12-20T11:12:13;92594.91;;;9.01
28305;BMP280;15569;42.652;23.040;2023-12-20T11:14:48;92590.53;;;9.21
28305;BMP280;15569;42.652;23.040;2023-12-20T11:17:15;92579.25;;;9.13
28305;BMP280;15569;42.652;23.040;2023-12-20T11:22:19;92568.81;;;10.07
28305;BMP280;15569;42.652;23.040;2023-12-20T11:24:45;92569.06;;;10.42
28305;BMP280;15569;42.652;23.040;2023-12-20T11:27:13;92559.72;;;10.76
28305;BMP280;15569;42.652;23.040;2023-12-20T11:29:38;92553.56;;;11.25
28305;BMP280;15569;42.652;23.040;2023-12-20T11:34:51;92543.88;;;12.43
28305;BMP280;15569;42.652;23.040;2023-12-20T11:37:19;92528.34;;;12.67
28305;BMP280;15569;42.652;23.040;2023-12-20T11:39:45;92520.03;;;12.63
28305;BMP280;15569;42.652;23.040;2023-12-20T11:42:12;92518.56;;;11.50
28305;BMP280;15569;42.652;23.040;2023-12-20T11:44:42;92528.81;;;11.69
28305;BMP280;15569;42.652;23.040;2023-12-20T11:47:07;92522.66;;;13.00
28305;BMP280;15569;42.652;23.040;2023-12-20T11:49:32;92524.78;;;14.10
28305;BMP280;15569;42.652;23.040;2023-12-20T11:51:58;92507.78;;;14.63
28305;BMP280;15569;42.652;23.040;2023-12-20T11:54:25;92510.78;;;14.98
28305;BMP280;15569;42.652;23.040;2023-12-20T11:56:50;92507.59;;;15.65
28305;BMP280;15569;42.652;23.040;2023-12-20T11:59:16;92485.38;;;16.48
28305;BMP280;15569;42.652;23.040;2023-12-20T12:01:48;92487.53;;;16.20
28305;BMP280;15569;42.652;23.040;2023-12-20T12:04:15;92488.66;;;16.43
28305;BMP280;15569;42.652;23.040;2023-12-20T12:06:42;92470.09;;;17.16
28305;BMP280;15569;42.652;23.040;2023-12-20T12:09:08;92478.84;;;18.00
28305;BMP280;15569;42.652;23.040;2023-12-20T12:11:33;92466.56;;;18.69
28305;BMP280;15569;42.652;23.040;2023-12-20T12:13:59;92471.28;;;19.37
28305;BMP280;15569;42.652;23.040;2023-12-20T12:16:25;92448.13;;;19.84
28305;BMP280;15569;42.652;23.040;2023-12-20T12:18:57;92453.88;;;20.62
28305;BMP280;15569;42.652;23.040;2023-12-20T12:21:22;92462.22;;;21.16
28305;BMP280;15569;42.652;23.040;2023-12-20T12:23:48;92453.16;;;21.72
28305;BMP280;15569;42.652;23.040;2023-12-20T12:26:13;92451.53;;;22.33
28305;BMP280;15569;42.652;23.040;2023-12-20T12:28:42;92446.47;;;22.72
28305;BMP280;15569;42.652;23.040;2023-12-20T12:31:09;92446.78;;;23.19
28305;BMP280;15569;42.652;23.040;2023-12-20T12:33:38;92448.94;;;23.81
28305;BMP280;15569;42.652;23.040;2023-12-20T12:36:03;92444.22;;;23.65
28305;BMP280;15569;42.652;23.040;2023-12-20T12:38:32;92436.22;;;23.37
28305;BMP280;15569;42.652;23.040;2023-12-20T12:40:57;92448.53;;;24.15
28305;BMP280;15569;42.652;23.040;2023-12-20T12:43:23;92428.34;;;23.60
28305;BMP280;15569;42.652;23.040;2023-12-20T12:45:49;92432.00;;;22.59
28305;BMP280;15569;42.652;23.040;2023-12-20T12:48:15;92433.53;;;23.27
28305;BMP280;15569;42.652;23.040;2023-12-20T12:50:40;92424.19;;;23.59
28305;BMP280;15569;42.652;23.040;2023-12-20T12:53:06;92435.09;;;24.31
28305;BMP280;15569;42.652;23.040;2023-12-20T12:55:31;92421.28;;;24.74
28305;BMP280;15569;42.652;23.040;2023-12-20T12:57:56;92429.34;;;24.48
28305;BMP280;15569;42.652;23.040;2023-12-20T13:00:22;92411.50;;;23.13
28305;BMP280;15569;42.652;23.040;2023-12-20T13:02:47;92413.00;;;21.87
28305;BMP280;15569;42.652;23.040;2023-12-20T13:05:13;92423.41;;;21.81
28305;BMP280;15569;42.652;23.040;2023-12-20T13:07:38;92415.25;;;21.18
28305;BMP280;15569;42.652;23.040;2023-12-20T13:10:05;92424.91;;;21.11
28305;BMP280;15569;42.652;23.040;2023-12-20T13:12:31;92411.09;;;21.13
28305;BMP280;15569;42.652;23.040;2023-12-20T13:14:57;92422.09;;;20.41
28305;BMP280;15569;42.652;23.040;2023-12-20T13:17:23;92412.03;;;19.44
28305;BMP280;15569;42.652;23.040;2023-12-20T13:19:51;92417.69;;;18.68
28305;BMP280;15569;42.652;23.040;2023-12-20T13:22:16;92411.38;;;18.53
28305;BMP280;15569;42.652;23.040;2023-12-20T13:24:41;92408.28;;;17.65
28305;BMP280;15569;42.652;23.040;2023-12-20T13:27:10;92404.25;;;17.23
28305;BMP280;15569;42.652;23.040;2023-12-20T13:29:35;92410.16;;;16.63
28305;BMP280;15569;42.652;23.040;2023-12-20T13:32:00;92408.13;;;16.26
28305;BMP280;15569;42.652;23.040;2023-12-20T13:34:26;92403.59;;;16.05
28305;BMP280;15569;42.652;23.040;2023-12-20T13:36:51;92402.25;;;15.72
28305;BMP280;15569;42.652;23.040;2023-12-20T13:39:16;92413.78;;;15.35
28305;BMP280;15569;42.652;23.040;2023-12-20T13:41:42;92402.59;;;15.55
28305;BMP280;15569;42.652;23.040;2023-12-20T13:44:08;92400.34;;;15.17
28305;BMP280;15569;42.652;23.040;2023-12-20T13:46:33;92376.06;;;15.32
28305;BMP280;15569;42.652;23.040;2023-12-20T13:48:58;92399.63;;;14.85
28305;BMP280;15569;42.652;23.040;2023-12-20T13:51:24;92405.09;;;14.85
28305;BMP280;15569;42.652;23.040;2023-12-20T13:53:50;92403.34;;;14.70
28305;BMP280;15569;42.652;23.040;2023-12-20T13:56:15;92403.22;;;14.94
28305;BMP280;15569;42.652;23.040;2023-12-20T13:58:41;92391.63;;;14.40
28305;BMP280;15569;42.652;23.040;2023-12-20T14:01:09;92401.66;;;13.80
28305;BMP280;15569;42.652;23.040;2023-12-20T14:03:35;92399.88;;;13.91
28305;BMP280;15569;42.652;23.040;2023-12-20T14:06:01;92407.84;;;13.14